This is the latest recevied weather packets stored in our database for station/object KB4MOX. If no packets are shown the sender has not sent any weather packets the latest 10 day(s).
| Time | Temp. | Humidity | Pressure | Rain* | Wind** | Luminosity | Snow |
|---|---|---|---|---|---|---|---|
| 1788020683 | 28.89° C | 69% | 1021.4 hPa | 0 mm | - | 441 W/m² | - |
| 1788020378 | 28.33° C | 70% | 1021.4 hPa | 0 mm | - | 420 W/m² | - |
| 1788020075 | 28.89° C | 68% | 1021.6 hPa | 0 mm | - | 407 W/m² | - |
| 1788019775 | 28.89° C | 68% | 1021.6 hPa | 0 mm | - | 468 W/m² | - |
| 1788019475 | 28.89° C | 68% | 1021.5 hPa | 0 mm | - | 647 W/m² | - |
| 1788019172 | 28.89° C | 67% | 1021.6 hPa | 0 mm | - | 221 W/m² | - |
| 1788018867 | 28.89° C | 71% | 1021.5 hPa | 0 mm | - | 721 W/m² | - |
| 1788018562 | 28.33° C | 74% | 1021.4 hPa | 0 mm | - | 688 W/m² | - |
| 1788018260 | 28.33° C | 73% | 1021.6 hPa | 0 mm | - | 198 W/m² | - |
| 1788017957 | 27.78° C | 75% | 1021.5 hPa | 0 mm | - | 760 W/m² | - |
| 1788017653 | 27.78° C | 76% | 1021.7 hPa | 0 mm | - | 538 W/m² | - |
| 1788017350 | 27.22° C | 76% | 1021.7 hPa | 0 mm | - | 219 W/m² | - |
| 1788017046 | 27.22° C | 77% | 1021.7 hPa | 0 mm | - | 369 W/m² | - |
| 1788016745 | 27.78° C | 76% | 1021.5 hPa | 0 mm | - | 224 W/m² | - |
| 1788016443 | 27.78° C | 77% | 1021.4 hPa | 0 mm | - | 177 W/m² | - |
| 1788016137 | 27.22° C | 78% | 1021.5 hPa | 0 mm | - | 239 W/m² | - |
| 1788015835 | 26.67° C | 79% | 1021.5 hPa | 0 mm | - | 204 W/m² | - |
| 1788015531 | 26.11° C | 81% | 1021.5 hPa | 0 mm | - | 173 W/m² | - |
| 1788015226 | 26.67° C | 80% | 1021.4 hPa | 0 mm | - | 181 W/m² | - |
| 1788014924 | 26.67° C | 80% | 1021.3 hPa | 0 mm | - | 181 W/m² | - |
| 1788014619 | 26.11° C | 82% | 1021.4 hPa | 0 mm | - | 147 W/m² | - |
| 1788014315 | 26.11° C | 83% | 1021.4 hPa | 0 mm | - | 145 W/m² | - |
| 1788014010 | 25.56° C | 83% | 1021.4 hPa | 0 mm | - | 111 W/m² | - |
| 1788013710 | 25.56° C | 83% | 1021.4 hPa | 0 mm | - | 151 W/m² | - |
| 1788013409 | 26.11° C | 82% | 1021.5 hPa | 0 mm | - | 158 W/m² | - |
* Rain latest hour (hover to see other rain measurements)
** Current wind speed in m/s (hover to see current wind gust speed)